ADDS TAF Data INFO
IDs: Format: Raw Decoded Include METARs

Data at: 0820 UTC 22 Jul 2018

KDDC 220752Z AUTO 11005KT 10SM CLR 24/18 A3005 RMK AO2 SLP138 T02440178

KDDC 220520Z 2206/2306 12011KT P6SM SCT100
  FM221800 16013KT P6SM FEW250
  FM230100 10012KT P6SM FEW250